sensor_id;sensor_type;location;lat;lon;timestamp;P1;durP1;ratioP1;P2;durP2;ratioP2
48014;SDS011;33780;51.034;7.120;2023-09-12T00:00:18;7.85;;;3.70;;
48014;SDS011;33780;51.034;7.120;2023-09-12T00:02:43;8.82;;;4.20;;
48014;SDS011;33780;51.034;7.120;2023-09-12T00:05:08;6.22;;;3.53;;
48014;SDS011;33780;51.034;7.120;2023-09-12T00:07:34;7.07;;;4.05;;
48014;SDS011;33780;51.034;7.120;2023-09-12T00:10:00;6.97;;;3.67;;
48014;SDS011;33780;51.034;7.120;2023-09-12T00:12:25;7.07;;;4.10;;
48014;SDS011;33780;51.034;7.120;2023-09-12T00:14:51;7.65;;;3.70;;
48014;SDS011;33780;51.034;7.120;2023-09-12T00:17:16;6.22;;;3.78;;
48014;SDS011;33780;51.034;7.120;2023-09-12T00:19:42;6.65;;;3.55;;
48014;SDS011;33780;51.034;7.120;2023-09-12T00:22:08;6.47;;;4.00;;
48014;SDS011;33780;51.034;7.120;2023-09-12T00:24:33;5.13;;;3.47;;
48014;SDS011;33780;51.034;7.120;2023-09-12T00:26:58;7.57;;;3.60;;
48014;SDS011;33780;51.034;7.120;2023-09-12T00:29:24;7.25;;;4.00;;
48014;SDS011;33780;51.034;7.120;2023-09-12T00:31:49;5.68;;;3.65;;
48014;SDS011;33780;51.034;7.120;2023-09-12T00:34:17;6.40;;;3.53;;
48014;SDS011;33780;51.034;7.120;2023-09-12T00:36:42;6.28;;;3.63;;
48014;SDS011;33780;51.034;7.120;2023-09-12T00:39:08;6.68;;;3.92;;
48014;SDS011;33780;51.034;7.120;2023-09-12T00:41:33;6.15;;;3.50;;
48014;SDS011;33780;51.034;7.120;2023-09-12T00:43:58;7.35;;;3.80;;
48014;SDS011;33780;51.034;7.120;2023-09-12T00:46:24;8.77;;;4.13;;
48014;SDS011;33780;51.034;7.120;2023-09-12T00:48:50;6.25;;;3.97;;
48014;SDS011;33780;51.034;7.120;2023-09-12T00:51:18;5.63;;;3.55;;
48014;SDS011;33780;51.034;7.120;2023-09-12T00:53:45;10.85;;;4.43;;
48014;SDS011;33780;51.034;7.120;2023-09-12T00:56:11;6.10;;;3.67;;
48014;SDS011;33780;51.034;7.120;2023-09-12T00:58:37;9.35;;;4.10;;
48014;SDS011;33780;51.034;7.120;2023-09-12T01:01:02;6.82;;;3.65;;
48014;SDS011;33780;51.034;7.120;2023-09-12T01:03:29;5.45;;;3.70;;
48014;SDS011;33780;51.034;7.120;2023-09-12T01:05:55;7.43;;;3.40;;
48014;SDS011;33780;51.034;7.120;2023-09-12T01:08:22;5.85;;;3.72;;
48014;SDS011;33780;51.034;7.120;2023-09-12T01:10:47;7.47;;;3.85;;
48014;SDS011;33780;51.034;7.120;2023-09-12T01:13:15;7.18;;;3.85;;
48014;SDS011;33780;51.034;7.120;2023-09-12T01:15:41;7.20;;;3.50;;
48014;SDS011;33780;51.034;7.120;2023-09-12T01:18:07;5.75;;;3.45;;
48014;SDS011;33780;51.034;7.120;2023-09-12T01:20:34;7.25;;;3.75;;
48014;SDS011;33780;51.034;7.120;2023-09-12T01:23:07;8.05;;;4.10;;
48014;SDS011;33780;51.034;7.120;2023-09-12T01:28:17;7.07;;;3.90;;
48014;SDS011;33780;51.034;7.120;2023-09-12T01:30:42;5.78;;;3.63;;
48014;SDS011;33780;51.034;7.120;2023-09-12T01:33:13;8.90;;;3.72;;
48014;SDS011;33780;51.034;7.120;2023-09-12T01:35:39;7.05;;;3.67;;
48014;SDS011;33780;51.034;7.120;2023-09-12T01:38:04;7.38;;;3.85;;
48014;SDS011;33780;51.034;7.120;2023-09-12T01:40:35;6.53;;;4.00;;
48014;SDS011;33780;51.034;7.120;2023-09-12T01:43:13;8.45;;;3.78;;
48014;SDS011;33780;51.034;7.120;2023-09-12T01:45:41;5.80;;;3.85;;
48014;SDS011;33780;51.034;7.120;2023-09-12T01:48:07;6.55;;;3.58;;
48014;SDS011;33780;51.034;7.120;2023-09-12T01:50:33;5.88;;;3.42;;
48014;SDS011;33780;51.034;7.120;2023-09-12T01:52:59;7.40;;;3.53;;
48014;SDS011;33780;51.034;7.120;2023-09-12T01:55:25;5.75;;;3.50;;
48014;SDS011;33780;51.034;7.120;2023-09-12T01:57:51;9.60;;;3.63;;
48014;SDS011;33780;51.034;7.120;2023-09-12T02:00:18;7.25;;;3.75;;
48014;SDS011;33780;51.034;7.120;2023-09-12T02:02:44;8.20;;;3.95;;
48014;SDS011;33780;51.034;7.120;2023-09-12T02:05:17;7.13;;;3.70;;
48014;SDS011;33780;51.034;7.120;2023-09-12T02:07:45;5.85;;;3.47;;
48014;SDS011;33780;51.034;7.120;2023-09-12T02:10:11;8.40;;;3.85;;
48014;SDS011;33780;51.034;7.120;2023-09-12T02:12:36;7.25;;;3.78;;
48014;SDS011;33780;51.034;7.120;2023-09-12T02:15:02;8.85;;;4.60;;
48014;SDS011;33780;51.034;7.120;2023-09-12T02:17:27;7.35;;;3.70;;
48014;SDS011;33780;51.034;7.120;2023-09-12T02:19:53;9.05;;;3.55;;
48014;SDS011;33780;51.034;7.120;2023-09-12T02:22:18;6.93;;;3.30;;
48014;SDS011;33780;51.034;7.120;2023-09-12T02:24:43;10.85;;;3.60;;
48014;SDS011;33780;51.034;7.120;2023-09-12T02:27:09;4.75;;;3.03;;
48014;SDS011;33780;51.034;7.120;2023-09-12T02:29:34;6.30;;;4.00;;
48014;SDS011;33780;51.034;7.120;2023-09-12T02:31:59;7.70;;;3.58;;
48014;SDS011;33780;51.034;7.120;2023-09-12T02:34:25;7.82;;;3.90;;
48014;SDS011;33780;51.034;7.120;2023-09-12T02:36:50;5.75;;;3.50;;
48014;SDS011;33780;51.034;7.120;2023-09-12T02:39:15;7.30;;;3.72;;
48014;SDS011;33780;51.034;7.120;2023-09-12T02:41:41;7.72;;;3.30;;
48014;SDS011;33780;51.034;7.120;2023-09-12T02:44:06;6.75;;;3.10;;
48014;SDS011;33780;51.034;7.120;2023-09-12T02:46:32;5.88;;;3.63;;
48014;SDS011;33780;51.034;7.120;2023-09-12T02:48:57;11.85;;;3.83;;
48014;SDS011;33780;51.034;7.120;2023-09-12T02:51:22;6.63;;;3.60;;
48014;SDS011;33780;51.034;7.120;2023-09-12T02:53:49;7.72;;;3.80;;
48014;SDS011;33780;51.034;7.120;2023-09-12T02:56:14;6.93;;;3.20;;
48014;SDS011;33780;51.034;7.120;2023-09-12T02:58:39;6.18;;;3.47;;
48014;SDS011;33780;51.034;7.120;2023-09-12T03:01:05;6.50;;;3.38;;
48014;SDS011;33780;51.034;7.120;2023-09-12T03:03:31;5.90;;;3.33;;
48014;SDS011;33780;51.034;7.120;2023-09-12T03:06:00;7.80;;;3.35;;
48014;SDS011;33780;51.034;7.120;2023-09-12T03:08:28;5.37;;;3.17;;
48014;SDS011;33780;51.034;7.120;2023-09-12T03:10:57;5.47;;;3.40;;
48014;SDS011;33780;51.034;7.120;2023-09-12T03:13:26;5.75;;;3.38;;
48014;SDS011;33780;51.034;7.120;2023-09-12T03:15:51;4.40;;;2.90;;
48014;SDS011;33780;51.034;7.120;2023-09-12T03:18:17;4.40;;;2.80;;
48014;SDS011;33780;51.034;7.120;2023-09-12T03:20:42;5.65;;;3.10;;
48014;SDS011;33780;51.034;7.120;2023-09-12T03:23:08;6.10;;;3.35;;
48014;SDS011;33780;51.034;7.120;2023-09-12T03:25:37;5.10;;;2.67;;
48014;SDS011;33780;51.034;7.120;2023-09-12T03:28:03;6.95;;;3.42;;
48014;SDS011;33780;51.034;7.120;2023-09-12T03:30:30;4.97;;;2.67;;
48014;SDS011;33780;51.034;7.120;2023-09-12T03:32:59;6.03;;;3.42;;
48014;SDS011;33780;51.034;7.120;2023-09-12T03:35:25;5.30;;;2.75;;
48014;SDS011;33780;51.034;7.120;2023-09-12T03:37:50;7.13;;;3.00;;
48014;SDS011;33780;51.034;7.120;2023-09-12T03:40:15;5.05;;;2.72;;
48014;SDS011;33780;51.034;7.120;2023-09-12T03:42:41;7.00;;;2.83;;
48014;SDS011;33780;51.034;7.120;2023-09-12T03:45:06;4.80;;;2.55;;
48014;SDS011;33780;51.034;7.120;2023-09-12T03:47:32;5.00;;;2.80;;
48014;SDS011;33780;51.034;7.120;2023-09-12T03:49:57;3.38;;;2.13;;
48014;SDS011;33780;51.034;7.120;2023-09-12T03:52:22;4.75;;;2.75;;
48014;SDS011;33780;51.034;7.120;2023-09-12T03:54:48;3.67;;;2.30;;
48014;SDS011;33780;51.034;7.120;2023-09-12T03:57:13;5.13;;;2.50;;
48014;SDS011;33780;51.034;7.120;2023-09-12T03:59:38;4.72;;;2.50;;
48014;SDS011;33780;51.034;7.120;2023-09-12T04:02:03;4.10;;;2.15;;
48014;SDS011;33780;51.034;7.120;2023-09-12T04:04:29;5.13;;;2.53;;
48014;SDS011;33780;51.034;7.120;2023-09-12T04:06:54;4.88;;;2.53;;
48014;SDS011;33780;51.034;7.120;2023-09-12T04:09:20;4.35;;;2.40;;
48014;SDS011;33780;51.034;7.120;2023-09-12T04:11:45;4.35;;;2.25;;
48014;SDS011;33780;51.034;7.120;2023-09-12T04:14:11;4.07;;;2.30;;
48014;SDS011;33780;51.034;7.120;2023-09-12T04:16:36;5.40;;;2.40;;
48014;SDS011;33780;51.034;7.120;2023-09-12T04:19:01;3.60;;;1.98;;
48014;SDS011;33780;51.034;7.120;2023-09-12T04:21:28;4.55;;;2.33;;
48014;SDS011;33780;51.034;7.120;2023-09-12T04:23:53;4.38;;;2.35;;
48014;SDS011;33780;51.034;7.120;2023-09-12T04:26:18;4.00;;;2.22;;
48014;SDS011;33780;51.034;7.120;2023-09-12T04:28:46;3.58;;;2.10;;
48014;SDS011;33780;51.034;7.120;2023-09-12T04:31:11;4.72;;;2.33;;
48014;SDS011;33780;51.034;7.120;2023-09-12T04:33:37;4.68;;;2.05;;
48014;SDS011;33780;51.034;7.120;2023-09-12T04:36:02;3.90;;;2.10;;
48014;SDS011;33780;51.034;7.120;2023-09-12T04:38:27;5.38;;;2.28;;
48014;SDS011;33780;51.034;7.120;2023-09-12T04:40:53;5.68;;;2.25;;
48014;SDS011;33780;51.034;7.120;2023-09-12T04:43:20;3.25;;;1.80;;
48014;SDS011;33780;51.034;7.120;2023-09-12T04:45:45;4.35;;;1.98;;
48014;SDS011;33780;51.034;7.120;2023-09-12T04:48:10;3.60;;;1.98;;
48014;SDS011;33780;51.034;7.120;2023-09-12T04:50:40;4.20;;;2.20;;
48014;SDS011;33780;51.034;7.120;2023-09-12T04:53:06;5.47;;;2.10;;
48014;SDS011;33780;51.034;7.120;2023-09-12T04:55:31;3.03;;;1.73;;
48014;SDS011;33780;51.034;7.120;2023-09-12T04:57:57;4.82;;;1.90;;
48014;SDS011;33780;51.034;7.120;2023-09-12T05:00:22;4.22;;;2.20;;
48014;SDS011;33780;51.034;7.120;2023-09-12T05:02:47;4.03;;;2.08;;
48014;SDS011;33780;51.034;7.120;2023-09-12T05:05:13;4.53;;;2.35;;
48014;SDS011;33780;51.034;7.120;2023-09-12T05:07:41;4.13;;;2.00;;
48014;SDS011;33780;51.034;7.120;2023-09-12T05:10:06;3.72;;;1.88;;
48014;SDS011;33780;51.034;7.120;2023-09-12T05:12:31;3.78;;;1.98;;
48014;SDS011;33780;51.034;7.120;2023-09-12T05:14:57;4.82;;;2.30;;
48014;SDS011;33780;51.034;7.120;2023-09-12T05:17:23;3.60;;;1.90;;
48014;SDS011;33780;51.034;7.120;2023-09-12T05:19:48;3.63;;;1.92;;
48014;SDS011;33780;51.034;7.120;2023-09-12T05:22:22;4.20;;;2.17;;
48014;SDS011;33780;51.034;7.120;2023-09-12T05:24:48;3.47;;;1.90;;
48014;SDS011;33780;51.034;7.120;2023-09-12T05:27:14;3.80;;;2.25;;
48014;SDS011;33780;51.034;7.120;2023-09-12T05:29:39;3.55;;;2.10;;
48014;SDS011;33780;51.034;7.120;2023-09-12T05:32:05;4.75;;;2.35;;
48014;SDS011;33780;51.034;7.120;2023-09-12T05:34:33;4.65;;;1.88;;
48014;SDS011;33780;51.034;7.120;2023-09-12T05:37:02;4.45;;;2.13;;
48014;SDS011;33780;51.034;7.120;2023-09-12T05:39:28;4.40;;;1.95;;
48014;SDS011;33780;51.034;7.120;2023-09-12T05:41:53;4.20;;;2.00;;
48014;SDS011;33780;51.034;7.120;2023-09-12T05:44:18;4.50;;;2.05;;
48014;SDS011;33780;51.034;7.120;2023-09-12T05:46:49;3.00;;;1.90;;
48014;SDS011;33780;51.034;7.120;2023-09-12T05:49:15;4.03;;;1.90;;
48014;SDS011;33780;51.034;7.120;2023-09-12T05:51:40;4.45;;;2.08;;
48014;SDS011;33780;51.034;7.120;2023-09-12T05:54:07;3.72;;;2.10;;
48014;SDS011;33780;51.034;7.120;2023-09-12T05:56:38;3.55;;;1.80;;
48014;SDS011;33780;51.034;7.120;2023-09-12T05:59:05;4.72;;;1.92;;
48014;SDS011;33780;51.034;7.120;2023-09-12T06:01:33;3.83;;;1.90;;
48014;SDS011;33780;51.034;7.120;2023-09-12T06:03:59;3.50;;;1.83;;
48014;SDS011;33780;51.034;7.120;2023-09-12T06:06:24;3.50;;;1.52;;
48014;SDS011;33780;51.034;7.120;2023-09-12T06:08:49;4.40;;;2.05;;
48014;SDS011;33780;51.034;7.120;2023-09-12T06:11:15;3.20;;;1.70;;
48014;SDS011;33780;51.034;7.120;2023-09-12T06:13:40;4.30;;;1.85;;
48014;SDS011;33780;51.034;7.120;2023-09-12T06:16:05;3.10;;;1.90;;
48014;SDS011;33780;51.034;7.120;2023-09-12T06:18:31;5.30;;;2.05;;
48014;SDS011;33780;51.034;7.120;2023-09-12T06:20:58;6.65;;;2.45;;
48014;SDS011;33780;51.034;7.120;2023-09-12T06:23:23;3.25;;;1.60;;
48014;SDS011;33780;51.034;7.120;2023-09-12T06:25:49;3.55;;;2.00;;
48014;SDS011;33780;51.034;7.120;2023-09-12T06:28:24;4.60;;;2.00;;
48014;SDS011;33780;51.034;7.120;2023-09-12T06:30:53;3.63;;;2.00;;
48014;SDS011;33780;51.034;7.120;2023-09-12T06:33:18;5.28;;;2.08;;
48014;SDS011;33780;51.034;7.120;2023-09-12T06:35:43;4.18;;;2.42;;
48014;SDS011;33780;51.034;7.120;2023-09-12T06:38:12;3.60;;;2.30;;
48014;SDS011;33780;51.034;7.120;2023-09-12T06:40:37;5.20;;;2.40;;
48014;SDS011;33780;51.034;7.120;2023-09-12T06:43:02;4.05;;;2.00;;
48014;SDS011;33780;51.034;7.120;2023-09-12T06:45:28;4.93;;;2.63;;
48014;SDS011;33780;51.034;7.120;2023-09-12T06:47:54;4.28;;;2.10;;
48014;SDS011;33780;51.034;7.120;2023-09-12T06:50:19;6.25;;;2.70;;
48014;SDS011;33780;51.034;7.120;2023-09-12T06:52:44;5.53;;;2.70;;
48014;SDS011;33780;51.034;7.120;2023-09-12T06:55:10;4.70;;;2.50;;
48014;SDS011;33780;51.034;7.120;2023-09-12T06:57:35;5.28;;;2.50;;
48014;SDS011;33780;51.034;7.120;2023-09-12T07:00:00;4.50;;;2.50;;
48014;SDS011;33780;51.034;7.120;2023-09-12T07:02:26;7.90;;;2.88;;
48014;SDS011;33780;51.034;7.120;2023-09-12T07:04:52;5.35;;;2.72;;
48014;SDS011;33780;51.034;7.120;2023-09-12T07:07:17;4.22;;;2.30;;
48014;SDS011;33780;51.034;7.120;2023-09-12T07:09:42;4.75;;;2.58;;
48014;SDS011;33780;51.034;7.120;2023-09-12T07:12:11;4.45;;;2.58;;
48014;SDS011;33780;51.034;7.120;2023-09-12T07:14:36;8.05;;;2.78;;
48014;SDS011;33780;51.034;7.120;2023-09-12T07:17:02;7.00;;;2.60;;
48014;SDS011;33780;51.034;7.120;2023-09-12T07:19:28;6.35;;;2.53;;
48014;SDS011;33780;51.034;7.120;2023-09-12T07:21:53;5.75;;;2.45;;
48014;SDS011;33780;51.034;7.120;2023-09-12T07:24:19;6.00;;;2.63;;
48014;SDS011;33780;51.034;7.120;2023-09-12T07:26:44;6.13;;;2.95;;
48014;SDS011;33780;51.034;7.120;2023-09-12T07:29:11;5.28;;;2.72;;
48014;SDS011;33780;51.034;7.120;2023-09-12T07:31:37;6.03;;;2.45;;
48014;SDS011;33780;51.034;7.120;2023-09-12T07:34:03;4.90;;;2.65;;
48014;SDS011;33780;51.034;7.120;2023-09-12T07:36:28;4.97;;;3.00;;
48014;SDS011;33780;51.034;7.120;2023-09-12T07:38:53;4.72;;;2.33;;
48014;SDS011;33780;51.034;7.120;2023-09-12T07:41:19;5.70;;;3.08;;
48014;SDS011;33780;51.034;7.120;2023-09-12T07:43:44;5.20;;;3.00;;
48014;SDS011;33780;51.034;7.120;2023-09-12T07:46:09;6.05;;;3.00;;
48014;SDS011;33780;51.034;7.120;2023-09-12T07:48:35;5.60;;;3.25;;
48014;SDS011;33780;51.034;7.120;2023-09-12T07:51:00;5.13;;;2.78;;
48014;SDS011;33780;51.034;7.120;2023-09-12T07:53:25;8.93;;;3.00;;
48014;SDS011;33780;51.034;7.120;2023-09-12T07:55:51;4.68;;;2.70;;
48014;SDS011;33780;51.034;7.120;2023-09-12T07:58:16;7.72;;;3.00;;
48014;SDS011;33780;51.034;7.120;2023-09-12T08:00:46;7.38;;;2.60;;
48014;SDS011;33780;51.034;7.120;2023-09-12T08:03:12;6.97;;;2.75;;
48014;SDS011;33780;51.034;7.120;2023-09-12T08:05:37;7.60;;;3.10;;
48014;SDS011;33780;51.034;7.120;2023-09-12T08:08:03;5.93;;;2.67;;
48014;SDS011;33780;51.034;7.120;2023-09-12T08:10:29;7.40;;;3.33;;
48014;SDS011;33780;51.034;7.120;2023-09-12T08:12:54;5.32;;;3.00;;
48014;SDS011;33780;51.034;7.120;2023-09-12T08:15:19;7.30;;;3.38;;
48014;SDS011;33780;51.034;7.120;2023-09-12T08:17:45;9.57;;;3.08;;
48014;SDS011;33780;51.034;7.120;2023-09-12T08:20:10;6.50;;;3.28;;
48014;SDS011;33780;51.034;7.120;2023-09-12T08:22:36;6.15;;;3.03;;
48014;SDS011;33780;51.034;7.120;2023-09-12T08:25:02;6.90;;;3.63;;
48014;SDS011;33780;51.034;7.120;2023-09-12T08:27:27;4.88;;;2.80;;
48014;SDS011;33780;51.034;7.120;2023-09-12T08:29:53;6.72;;;3.08;;
48014;SDS011;33780;51.034;7.120;2023-09-12T08:32:18;5.57;;;3.25;;
48014;SDS011;33780;51.034;7.120;2023-09-12T08:34:43;5.68;;;3.33;;
48014;SDS011;33780;51.034;7.120;2023-09-12T08:37:08;6.55;;;3.45;;
48014;SDS011;33780;51.034;7.120;2023-09-12T08:39:41;5.88;;;3.40;;
48014;SDS011;33780;51.034;7.120;2023-09-12T08:42:15;5.47;;;3.35;;
48014;SDS011;33780;51.034;7.120;2023-09-12T08:44:41;6.18;;;3.05;;
48014;SDS011;33780;51.034;7.120;2023-09-12T08:47:08;6.75;;;3.15;;
48014;SDS011;33780;51.034;7.120;2023-09-12T08:49:37;5.68;;;3.42;;
48014;SDS011;33780;51.034;7.120;2023-09-12T08:52:03;6.22;;;3.20;;
48014;SDS011;33780;51.034;7.120;2023-09-12T08:54:29;5.10;;;2.92;;
48014;SDS011;33780;51.034;7.120;2023-09-12T08:56:55;4.85;;;2.90;;
48014;SDS011;33780;51.034;7.120;2023-09-12T08:59:21;6.10;;;3.22;;
48014;SDS011;33780;51.034;7.120;2023-09-12T09:01:47;5.53;;;3.25;;
48014;SDS011;33780;51.034;7.120;2023-09-12T09:04:16;7.00;;;4.00;;
48014;SDS011;33780;51.034;7.120;2023-09-12T09:06:44;5.50;;;3.25;;
48014;SDS011;33780;51.034;7.120;2023-09-12T09:09:13;5.22;;;3.78;;
48014;SDS011;33780;51.034;7.120;2023-09-12T09:11:38;8.00;;;3.80;;
48014;SDS011;33780;51.034;7.120;2023-09-12T09:14:03;6.78;;;3.30;;
48014;SDS011;33780;51.034;7.120;2023-09-12T09:16:31;4.75;;;3.08;;
48014;SDS011;33780;51.034;7.120;2023-09-12T09:19:01;7.82;;;3.38;;
48014;SDS011;33780;51.034;7.120;2023-09-12T09:21:30;6.13;;;3.40;;
48014;SDS011;33780;51.034;7.120;2023-09-12T09:24:01;5.30;;;3.40;;
48014;SDS011;33780;51.034;7.120;2023-09-12T09:26:42;6.88;;;3.55;;
48014;SDS011;33780;51.034;7.120;2023-09-12T09:29:18;6.10;;;3.13;;
48014;SDS011;33780;51.034;7.120;2023-09-12T09:31:46;6.05;;;3.30;;
48014;SDS011;33780;51.034;7.120;2023-09-12T09:34:16;6.25;;;3.55;;
48014;SDS011;33780;51.034;7.120;2023-09-12T09:36:52;6.97;;;3.63;;
48014;SDS011;33780;51.034;7.120;2023-09-12T09:39:19;7.05;;;3.78;;
48014;SDS011;33780;51.034;7.120;2023-09-12T09:41:53;6.03;;;3.55;;
48014;SDS011;33780;51.034;7.120;2023-09-12T09:44:20;6.90;;;3.55;;
48014;SDS011;33780;51.034;7.120;2023-09-12T09:46:46;5.93;;;3.50;;
48014;SDS011;33780;51.034;7.120;2023-09-12T09:49:18;6.72;;;3.80;;
48014;SDS011;33780;51.034;7.120;2023-09-12T09:51:45;6.35;;;3.63;;
48014;SDS011;33780;51.034;7.120;2023-09-12T09:54:11;6.10;;;3.42;;
48014;SDS011;33780;51.034;7.120;2023-09-12T09:56:58;9.95;;;4.10;;
48014;SDS011;33780;51.034;7.120;2023-09-12T09:59:23;7.57;;;4.05;;
48014;SDS011;33780;51.034;7.120;2023-09-12T10:01:53;5.85;;;3.40;;
48014;SDS011;33780;51.034;7.120;2023-09-12T10:04:23;6.53;;;3.80;;
48014;SDS011;33780;51.034;7.120;2023-09-12T10:06:55;6.30;;;3.35;;
48014;SDS011;33780;51.034;7.120;2023-09-12T10:09:22;6.85;;;3.60;;
48014;SDS011;33780;51.034;7.120;2023-09-12T10:11:51;8.10;;;3.92;;
48014;SDS011;33780;51.034;7.120;2023-09-12T10:14:18;6.70;;;3.50;;
48014;SDS011;33780;51.034;7.120;2023-09-12T10:16:45;8.77;;;3.90;;
48014;SDS011;33780;51.034;7.120;2023-09-12T10:19:19;5.95;;;3.70;;
48014;SDS011;33780;51.034;7.120;2023-09-12T10:27:07;6.07;;;3.58;;
48014;SDS011;33780;51.034;7.120;2023-09-12T10:29:34;6.35;;;3.80;;
48014;SDS011;33780;51.034;7.120;2023-09-12T10:32:00;11.30;;;4.57;;
48014;SDS011;33780;51.034;7.120;2023-09-12T10:34:28;6.30;;;3.63;;
48014;SDS011;33780;51.034;7.120;2023-09-12T10:36:58;8.48;;;4.00;;
48014;SDS011;33780;51.034;7.120;2023-09-12T10:39:29;7.05;;;3.80;;
48014;SDS011;33780;51.034;7.120;2023-09-12T10:41:57;5.68;;;3.50;;
48014;SDS011;33780;51.034;7.120;2023-09-12T10:44:23;6.15;;;3.13;;
48014;SDS011;33780;51.034;7.120;2023-09-12T10:46:49;7.30;;;3.60;;
48014;SDS011;33780;51.034;7.120;2023-09-12T10:49:17;7.47;;;3.53;;
48014;SDS011;33780;51.034;7.120;2023-09-12T10:51:44;7.05;;;3.67;;
48014;SDS011;33780;51.034;7.120;2023-09-12T10:54:15;6.90;;;3.45;;
48014;SDS011;33780;51.034;7.120;2023-09-12T10:57:01;5.35;;;3.15;;
48014;SDS011;33780;51.034;7.120;2023-09-12T11:00:07;8.02;;;3.47;;
48014;SDS011;33780;51.034;7.120;2023-09-12T11:02:45;6.22;;;3.15;;
48014;SDS011;33780;51.034;7.120;2023-09-12T11:07:57;5.00;;;3.45;;
48014;SDS011;33780;51.034;7.120;2023-09-12T11:10:24;9.48;;;3.50;;
48014;SDS011;33780;51.034;7.120;2023-09-12T11:12:51;6.45;;;3.90;;
48014;SDS011;33780;51.034;7.120;2023-09-12T11:15:20;6.57;;;3.60;;
48014;SDS011;33780;51.034;7.120;2023-09-12T11:18:00;7.35;;;3.00;;
48014;SDS011;33780;51.034;7.120;2023-09-12T11:22:51;5.03;;;2.80;;
48014;SDS011;33780;51.034;7.120;2023-09-12T11:25:18;5.72;;;3.40;;
48014;SDS011;33780;51.034;7.120;2023-09-12T11:28:01;4.72;;;2.97;;
48014;SDS011;33780;51.034;7.120;2023-09-12T11:30:57;5.55;;;3.17;;
48014;SDS011;33780;51.034;7.120;2023-09-12T11:33:23;5.57;;;2.97;;
48014;SDS011;33780;51.034;7.120;2023-09-12T11:35:51;5.25;;;3.47;;
48014;SDS011;33780;51.034;7.120;2023-09-12T11:38:25;5.95;;;3.22;;
48014;SDS011;33780;51.034;7.120;2023-09-12T11:40:55;5.72;;;3.28;;
48014;SDS011;33780;51.034;7.120;2023-09-12T11:43:21;6.10;;;3.30;;
48014;SDS011;33780;51.034;7.120;2023-09-12T11:45:51;4.97;;;3.30;;
48014;SDS011;33780;51.034;7.120;2023-09-12T11:48:17;7.55;;;3.85;;
48014;SDS011;33780;51.034;7.120;2023-09-12T11:50:48;6.70;;;3.03;;
48014;SDS011;33780;51.034;7.120;2023-09-12T11:53:22;4.72;;;3.33;;
48014;SDS011;33780;51.034;7.120;2023-09-12T11:55:51;5.25;;;3.28;;
48014;SDS011;33780;51.034;7.120;2023-09-12T11:58:19;6.00;;;3.35;;
48014;SDS011;33780;51.034;7.120;2023-09-12T12:00:45;6.35;;;3.00;;
48014;SDS011;33780;51.034;7.120;2023-09-12T12:03:16;5.32;;;3.08;;
48014;SDS011;33780;51.034;7.120;2023-09-12T12:05:42;5.32;;;3.30;;
48014;SDS011;33780;51.034;7.120;2023-09-12T12:08:08;4.45;;;3.00;;
48014;SDS011;33780;51.034;7.120;2023-09-12T12:10:38;6.25;;;3.00;;
48014;SDS011;33780;51.034;7.120;2023-09-12T12:13:05;5.28;;;3.40;;
48014;SDS011;33780;51.034;7.120;2023-09-12T12:15:33;4.90;;;3.10;;
48014;SDS011;33780;51.034;7.120;2023-09-12T12:17:58;6.00;;;2.83;;
48014;SDS011;33780;51.034;7.120;2023-09-12T12:20:24;4.57;;;2.67;;
48014;SDS011;33780;51.034;7.120;2023-09-12T12:22:49;7.45;;;3.08;;
48014;SDS011;33780;51.034;7.120;2023-09-12T12:25:18;4.97;;;3.20;;
48014;SDS011;33780;51.034;7.120;2023-09-12T12:27:43;5.25;;;2.97;;
48014;SDS011;33780;51.034;7.120;2023-09-12T12:30:10;6.15;;;3.10;;
48014;SDS011;33780;51.034;7.120;2023-09-12T12:32:40;4.70;;;2.97;;
48014;SDS011;33780;51.034;7.120;2023-09-12T12:35:07;6.10;;;3.13;;
48014;SDS011;33780;51.034;7.120;2023-09-12T12:37:32;4.82;;;2.60;;
48014;SDS011;33780;51.034;7.120;2023-09-12T12:39:58;4.72;;;2.97;;
48014;SDS011;33780;51.034;7.120;2023-09-12T12:42:25;6.03;;;2.97;;
48014;SDS011;33780;51.034;7.120;2023-09-12T12:44:57;4.45;;;2.72;;
48014;SDS011;33780;51.034;7.120;2023-09-12T12:47:22;8.00;;;3.45;;
48014;SDS011;33780;51.034;7.120;2023-09-12T12:49:50;6.45;;;3.20;;
48014;SDS011;33780;51.034;7.120;2023-09-12T12:52:17;4.97;;;2.92;;
48014;SDS011;33780;51.034;7.120;2023-09-12T12:54:47;5.22;;;2.78;;
48014;SDS011;33780;51.034;7.120;2023-09-12T12:57:16;5.65;;;3.10;;
48014;SDS011;33780;51.034;7.120;2023-09-12T12:59:45;4.80;;;3.05;;
48014;SDS011;33780;51.034;7.120;2023-09-12T13:02:11;5.90;;;3.08;;
48014;SDS011;33780;51.034;7.120;2023-09-12T13:04:37;6.25;;;2.90;;
48014;SDS011;33780;51.034;7.120;2023-09-12T13:07:03;4.95;;;2.80;;
48014;SDS011;33780;51.034;7.120;2023-09-12T13:09:28;5.13;;;2.85;;
48014;SDS011;33780;51.034;7.120;2023-09-12T13:11:54;4.75;;;2.60;;
48014;SDS011;33780;51.034;7.120;2023-09-12T13:14:19;4.75;;;2.60;;
48014;SDS011;33780;51.034;7.120;2023-09-12T13:16:44;4.78;;;2.63;;
48014;SDS011;33780;51.034;7.120;2023-09-12T13:19:10;4.72;;;2.13;;
48014;SDS011;33780;51.034;7.120;2023-09-12T13:21:38;4.65;;;2.20;;
48014;SDS011;33780;51.034;7.120;2023-09-12T13:24:04;3.45;;;2.55;;
48014;SDS011;33780;51.034;7.120;2023-09-12T13:26:29;4.88;;;2.90;;
48014;SDS011;33780;51.034;7.120;2023-09-12T13:28:54;4.97;;;2.55;;
48014;SDS011;33780;51.034;7.120;2023-09-12T13:31:20;5.30;;;2.35;;
48014;SDS011;33780;51.034;7.120;2023-09-12T13:33:45;4.75;;;2.55;;
48014;SDS011;33780;51.034;7.120;2023-09-12T13:36:10;3.83;;;2.28;;
48014;SDS011;33780;51.034;7.120;2023-09-12T13:38:35;5.25;;;2.85;;
48014;SDS011;33780;51.034;7.120;2023-09-12T13:41:01;4.28;;;2.60;;
48014;SDS011;33780;51.034;7.120;2023-09-12T13:43:26;6.05;;;2.55;;
48014;SDS011;33780;51.034;7.120;2023-09-12T13:45:53;4.60;;;2.35;;
48014;SDS011;33780;51.034;7.120;2023-09-12T13:48:18;4.18;;;2.47;;
48014;SDS011;33780;51.034;7.120;2023-09-12T13:50:43;3.40;;;2.13;;
48014;SDS011;33780;51.034;7.120;2023-09-12T13:53:09;4.22;;;2.25;;
48014;SDS011;33780;51.034;7.120;2023-09-12T13:55:35;5.43;;;2.42;;
48014;SDS011;33780;51.034;7.120;2023-09-12T13:58:04;3.10;;;2.10;;
48014;SDS011;33780;51.034;7.120;2023-09-12T14:00:31;4.88;;;2.55;;
48014;SDS011;33780;51.034;7.120;2023-09-12T14:02:57;5.78;;;2.70;;
48014;SDS011;33780;51.034;7.120;2023-09-12T14:05:23;5.32;;;2.40;;
48014;SDS011;33780;51.034;7.120;2023-09-12T14:07:49;3.78;;;2.50;;
48014;SDS011;33780;51.034;7.120;2023-09-12T14:10:17;4.18;;;2.20;;
48014;SDS011;33780;51.034;7.120;2023-09-12T14:12:42;4.85;;;2.47;;
48014;SDS011;33780;51.034;7.120;2023-09-12T14:15:09;3.80;;;2.42;;
48014;SDS011;33780;51.034;7.120;2023-09-12T14:17:35;5.85;;;2.80;;
48014;SDS011;33780;51.034;7.120;2023-09-12T14:20:00;4.45;;;2.70;;
48014;SDS011;33780;51.034;7.120;2023-09-12T14:22:25;3.72;;;2.15;;
48014;SDS011;33780;51.034;7.120;2023-09-12T14:24:51;4.07;;;2.50;;
48014;SDS011;33780;51.034;7.120;2023-09-12T14:27:16;4.32;;;2.30;;
48014;SDS011;33780;51.034;7.120;2023-09-12T14:29:41;3.90;;;2.20;;
48014;SDS011;33780;51.034;7.120;2023-09-12T14:32:10;3.47;;;2.15;;
48014;SDS011;33780;51.034;7.120;2023-09-12T14:34:35;4.70;;;2.72;;
48014;SDS011;33780;51.034;7.120;2023-09-12T14:37:01;3.70;;;2.10;;
48014;SDS011;33780;51.034;7.120;2023-09-12T14:39:26;5.32;;;2.55;;
48014;SDS011;33780;51.034;7.120;2023-09-12T14:41:51;4.63;;;2.65;;
48014;SDS011;33780;51.034;7.120;2023-09-12T14:44:20;3.70;;;2.10;;
48014;SDS011;33780;51.034;7.120;2023-09-12T14:46:46;5.53;;;2.28;;
48014;SDS011;33780;51.034;7.120;2023-09-12T14:49:11;4.45;;;2.60;;
48014;SDS011;33780;51.034;7.120;2023-09-12T14:51:37;4.72;;;2.42;;
48014;SDS011;33780;51.034;7.120;2023-09-12T14:54:02;5.38;;;2.65;;
48014;SDS011;33780;51.034;7.120;2023-09-12T14:56:28;4.13;;;2.30;;
48014;SDS011;33780;51.034;7.120;2023-09-12T14:58:53;5.78;;;2.35;;